1853 Hurricane NOT_NAMED (1853318N20288)


IBTrACS version v04r00. Visit IBTrACS website for data access.
Please direct all questions to the IBTrACS Q and A forum

Storm track - Intensity - Wind Radii - Intensity Data - Source Data - All data

Summary Information

Storm ID 1853318N20288
Start Nov 13 12Z
Max Intensity 95 kt (Nov 22 00Z), 965 mb (Nov 23 12Z)
End Nov 28 18Z
ATCF IDs
Track status Best track data.

Storm track plot

Map of storm track

Intensity plots

Map of storm track

Radial wind information

No radial wind information for this storm


Position and Intensity Table

BASIN ISO_TIME_________ NATURE LAT LON MLC WIND MLC PRES
degrees north degrees east kts mb
NA 1853-11-13 12:00:00 TS 20.50 -72.00 35
NA 15:00:00 TS 20.56 -72.01 35
NA 18:00:00 TS 20.60 -72.00 35
NA 21:00:00 TS 20.60 -71.95 35
NA 1853-11-14 00:00:00 TS 20.60 -71.90 35
NA 03:00:00 TS 20.65 -71.90 35
NA 06:00:00 TS 20.70 -71.90 35
NA 09:00:00 TS 20.70 -71.85 37
NA 12:00:00 TS 20.70 -71.80 40
NA 15:00:00 TS 20.75 -71.80 40
NA 18:00:00 TS 20.80 -71.80 40
NA 21:00:00 TS 20.80 -71.75 40
NA 1853-11-15 00:00:00 TS 20.80 -71.70 40
NA 03:00:00 TS 20.85 -71.70 40
NA 06:00:00 TS 20.90 -71.70 40
NA 09:00:00 TS 20.90 -71.66 42
NA 12:00:00 TS 20.90 -71.60 45
NA 15:00:00 TS 20.93 -71.51 45
NA 18:00:00 TS 21.00 -71.40 45
NA 21:00:00 TS 21.09 -71.26 45
NA 1853-11-16 00:00:00 TS 21.20 -71.10 45
NA 03:00:00 TS 21.31 -70.95 45
NA 06:00:00 TS 21.40 -70.80 45
NA 09:00:00 TS 21.46 -70.64 45
NA 12:00:00 TS 21.50 -70.50 45
NA 15:00:00 TS 21.55 -70.39 45
NA 18:00:00 TS 21.60 -70.30 45
NA 21:00:00 TS 21.64 -70.19 45
NA 1853-11-17 00:00:00 TS 21.70 -70.10 45
NA 03:00:00 TS 21.80 -70.05 45
NA 06:00:00 TS 21.90 -70.00 45
NA 09:00:00 TS 21.94 -69.88 47
NA 12:00:00 TS 22.00 -69.80 50
NA 15:00:00 TS 22.14 -69.87 50
NA 18:00:00 TS 22.30 -70.00 50
NA 21:00:00 TS 22.45 -70.10 50
NA 1853-11-18 00:00:00 TS 22.60 -70.20 50
NA 03:00:00 TS 22.75 -70.31 50
NA 06:00:00 TS 22.90 -70.40 50
NA 09:00:00 TS 23.06 -70.45 52
NA 12:00:00 TS 23.20 -70.50 55
NA 15:00:00 TS 23.31 -70.59 55
NA 18:00:00 TS 23.40 -70.70 55
NA 21:00:00 TS 23.50 -70.84 55
NA 1853-11-19 00:00:00 TS 23.60 -71.00 55
NA 03:00:00 TS 23.70 -71.16 55
NA 06:00:00 TS 23.80 -71.30 55
NA 09:00:00 TS 23.91 -71.39 57
NA 12:00:00 TS 24.00 -71.50 60
NA 15:00:00 TS 24.06 -71.69 60
NA 18:00:00 TS 24.10 -71.90 60
NA 21:00:00 TS 24.16 -72.06 60
NA 1853-11-20 00:00:00 TS 24.20 -72.20 60
NA 03:00:00 TS 24.20 -72.35 60
NA 06:00:00 TS 24.20 -72.50 60
NA 09:00:00 TS 24.24 -72.64 60
NA 12:00:00 TS 24.30 -72.80 60
NA 15:00:00 TS 24.35 -72.99 65
NA 18:00:00 TS 24.40 -73.20 70
NA 21:00:00 TS 24.45 -73.40 72
NA 1853-11-21 00:00:00 TS 24.50 -73.60 75
NA 03:00:00 TS 24.55 -73.79 77
NA 06:00:00 TS 24.60 -74.00 80
NA 09:00:00 TS 24.66 -74.29 82
NA 12:00:00 TS 24.70 -74.50 85
NA 15:00:00 TS 24.71 -74.45 87
NA 18:00:00 TS 24.70 -74.30 90
NA 21:00:00 TS 24.65 -74.19 92
NA 1853-11-22 00:00:00 TS 24.60 -74.10 95
NA 03:00:00 TS 24.60 -74.05 95
NA 06:00:00 TS 24.60 -74.00 95
NA 09:00:00 TS 24.56 -73.86 95
NA 12:00:00 TS 24.50 -73.80 95
NA 15:00:00 TS 24.45 -73.95 95
NA 18:00:00 TS 24.40 -74.20 95
NA 21:00:00 TS 24.35 -74.45 95
NA 1853-11-23 00:00:00 TS 24.30 -74.70 95
NA 03:00:00 TS 24.26 -74.91 95
NA 06:00:00 TS 24.20 -75.10 95
NA 09:00:00 TS 24.09 -75.41 95
NA 12:00:00 TS 24.00 -75.50 95 965
NA 15:00:00 TS 23.99 -75.10 95
NA 18:00:00 TS 24.00 -74.50 95
NA 21:00:00 TS 24.00 -74.00 95
NA 1853-11-24 00:00:00 TS 24.00 -73.50 95
NA 03:00:00 TS 24.00 -73.00 95
NA 06:00:00 TS 24.00 -72.50 95
NA 09:00:00 TS 23.96 -72.00 95
NA 12:00:00 TS 24.00 -71.50 95
NA 15:00:00 TS 24.22 -71.00 92
NA 18:00:00 TS 24.50 -70.50 90
NA 21:00:00 TS 24.71 -70.00 90
NA 1853-11-25 00:00:00 TS 24.90 -69.50 90
NA 03:00:00 TS 25.09 -69.00 87
NA 06:00:00 TS 25.30 -68.50 85
NA 09:00:00 TS 25.57 -68.00 85
NA 12:00:00 TS 25.80 -67.50 85
NA 15:00:00 TS 25.88 -66.99 82
NA 18:00:00 TS 25.90 -66.50 80
NA 21:00:00 TS 25.95 -66.04 80
NA 1853-11-26 00:00:00 TS 26.00 -65.60 80
NA 03:00:00 TS 26.05 -65.15 77
NA 06:00:00 TS 26.10 -64.70 75
NA 09:00:00 TS 26.15 -64.24 75
NA 12:00:00 TS 26.20 -63.80 75
NA 15:00:00 TS 26.24 -63.39 72
NA 18:00:00 TS 26.30 -63.00 70
NA 21:00:00 TS 26.40 -62.60 70
NA 1853-11-27 00:00:00 TS 26.50 -62.20 70
NA 03:00:00 TS 26.55 -61.80 67
NA 06:00:00 TS 26.60 -61.40 65
NA 09:00:00 TS 26.69 -61.01 65
NA 12:00:00 TS 26.80 -60.60 65
NA 15:00:00 TS 26.91 -60.12 65
NA 18:00:00 TS 27.00 -59.60 65
NA 21:00:00 TS 27.05 -59.10 60
NA 1853-11-28 00:00:00 TS 27.10 -58.60 55
NA 03:00:00 TS 27.19 -58.10 50
NA 06:00:00 TS 27.30 -57.60 45
NA 09:00:00 TS 27.40 -57.10 40
NA 12:00:00 ET 27.50 -56.60 35
NA 15:00:00 ET 27.60 -56.10 32
NA 18:00:00 ET 27.70 -55.60 30

Source Information

Agency Information
USA
TOKYO
CMA
HKO
NEWDELHI
REUNION
BOM
NADI
WELLINGTON
DS824
TD9636
TD9635
NEUMANN
MLC

All available IBTrACS Data

SEASON BASIN SUBBASIN ISO_TIME_________ NATURE LAT LON DIST2LAND LANDFALL IFLAG USA SSHS MLC LAT MLC LON MLC CLASS MLC WIND MLC PRES STORM SPEED STORM DIR
Year degrees north degrees east km km 1 degrees north degrees east kts mb kts degrees
1853 NA NA 1853-11-13 12:00:00 TS 20.50 -72.00 81 81 _____________O -1 20.50 -72.00 TS 35 1 0
1853 NA NA 15:00:00 TS 20.56 -72.01 91 91 _____________P -1 20.56 -72.01 TS 35 1 0
1853 NA NA 18:00:00 TS 20.60 -72.00 91 91 _____________O -1 20.60 -72.00 TS 35 1 57
1853 NA NA 21:00:00 TS 20.60 -71.95 90 90 _____________P -1 20.60 -71.95 TS 35 1 90
1853 NA NA 1853-11-14 00:00:00 TS 20.60 -71.90 90 90 _____________O -1 20.60 -71.90 TS 35 1 43
1853 NA NA 03:00:00 TS 20.65 -71.90 101 90 _____________P -1 20.65 -71.90 TS 35 1 0
1853 NA NA 06:00:00 TS 20.70 -71.90 101 101 _____________O -1 20.70 -71.90 TS 35 1 43
1853 NA NA 09:00:00 TS 20.70 -71.85 100 100 _____________P -1 20.70 -71.85 TS 37 1 90
1853 NA NA 12:00:00 TS 20.70 -71.80 100 100 _____________O -1 20.70 -71.80 TS 40 1 43
1853 NA NA 15:00:00 TS 20.75 -71.80 100 100 _____________P -1 20.75 -71.80 TS 40 1 0
1853 NA NA 18:00:00 TS 20.80 -71.80 111 111 _____________O -1 20.80 -71.80 TS 40 1 43
1853 NA NA 21:00:00 TS 20.80 -71.75 111 111 _____________P -1 20.80 -71.75 TS 40 1 90
1853 NA NA 1853-11-15 00:00:00 TS 20.80 -71.70 111 111 _____________O -1 20.80 -71.70 TS 40 1 43
1853 NA NA 03:00:00 TS 20.85 -71.70 111 111 _____________P -1 20.85 -71.70 TS 40 1 0
1853 NA NA 06:00:00 TS 20.90 -71.70 123 123 _____________O -1 20.90 -71.70 TS 40 1 43
1853 NA NA 09:00:00 TS 20.90 -71.66 123 123 _____________P -1 20.90 -71.66 TS 42 1 90
1853 NA NA 12:00:00 TS 20.90 -71.60 123 123 _____________O -1 20.90 -71.60 TS 45 1 76
1853 NA NA 15:00:00 TS 20.93 -71.51 123 123 _____________P -1 20.93 -71.51 TS 45 2 61
1853 NA NA 18:00:00 TS 21.00 -71.40 134 134 _____________O -1 21.00 -71.40 TS 45 3 57
1853 NA NA 21:00:00 TS 21.09 -71.26 145 145 _____________P -1 21.09 -71.26 TS 45 3 55
1853 NA NA 1853-11-16 00:00:00 TS 21.20 -71.10 156 156 _____________O -1 21.20 -71.10 TS 45 4 53
1853 NA NA 03:00:00 TS 21.31 -70.95 167 167 _____________P -1 21.31 -70.95 TS 45 3 55
1853 NA NA 06:00:00 TS 21.40 -70.80 178 178 _____________O -1 21.40 -70.80 TS 45 3 62
1853 NA NA 09:00:00 TS 21.46 -70.64 190 190 _____________P -1 21.46 -70.64 TS 45 3 70
1853 NA NA 12:00:00 TS 21.50 -70.50 190 190 _____________O -1 21.50 -70.50 TS 45 3 68
1853 NA NA 15:00:00 TS 21.55 -70.39 191 191 _____________P -1 21.55 -70.39 TS 45 2 61
1853 NA NA 18:00:00 TS 21.60 -70.30 203 203 _____________O -1 21.60 -70.30 TS 45 2 63
1853 NA NA 21:00:00 TS 21.64 -70.19 205 205 _____________P -1 21.64 -70.19 TS 45 2 61
1853 NA NA 1853-11-17 00:00:00 TS 21.70 -70.10 218 218 _____________O -1 21.70 -70.10 TS 45 2 40
1853 NA NA 03:00:00 TS 21.80 -70.05 232 232 _____________P -1 21.80 -70.05 TS 45 2 27
1853 NA NA 06:00:00 TS 21.90 -70.00 242 242 _____________O -1 21.90 -70.00 TS 45 2 48
1853 NA NA 09:00:00 TS 21.94 -69.88 245 245 _____________P -1 21.94 -69.88 TS 47 2 61
1853 NA NA 12:00:00 TS 22.00 -69.80 259 259 _____________O -1 22.00 -69.80 TS 50 2 7
1853 NA NA 15:00:00 TS 22.14 -69.87 267 267 _____________P -1 22.14 -69.87 TS 50 4 329
1853 NA NA 18:00:00 TS 22.30 -70.00 286 286 _____________O -1 22.30 -70.00 TS 50 4 326
1853 NA NA 21:00:00 TS 22.45 -70.10 306 295 _____________P -1 22.45 -70.10 TS 50 4 329
1853 NA NA 1853-11-18 00:00:00 TS 22.60 -70.20 315 315 _____________O -1 22.60 -70.20 TS 50 4 328
1853 NA NA 03:00:00 TS 22.75 -70.31 330 322 _____________P -1 22.75 -70.31 TS 50 4 329
1853 NA NA 06:00:00 TS 22.90 -70.40 328 328 _____________O -1 22.90 -70.40 TS 50 3 337
1853 NA NA 09:00:00 TS 23.06 -70.45 333 333 _____________P -1 23.06 -70.45 TS 52 3 344
1853 NA NA 12:00:00 TS 23.20 -70.50 340 340 _____________O -1 23.20 -70.50 TS 55 3 333
1853 NA NA 15:00:00 TS 23.31 -70.59 340 340 _____________P -1 23.31 -70.59 TS 55 3 317
1853 NA NA 18:00:00 TS 23.40 -70.70 341 334 _____________O -1 23.40 -70.70 TS 55 3 309
1853 NA NA 21:00:00 TS 23.50 -70.84 342 335 _____________P -1 23.50 -70.84 TS 55 3 306
1853 NA NA 1853-11-19 00:00:00 TS 23.60 -71.00 337 331 _____________O -1 23.60 -71.00 TS 55 4 305
1853 NA NA 03:00:00 TS 23.70 -71.16 335 335 _____________P -1 23.70 -71.16 TS 55 3 306
1853 NA NA 06:00:00 TS 23.80 -71.30 339 339 _____________O -1 23.80 -71.30 TS 55 3 314
1853 NA NA 09:00:00 TS 23.91 -71.39 343 343 _____________P -1 23.91 -71.39 TS 57 3 318
1853 NA NA 12:00:00 TS 24.00 -71.50 348 340 _____________O -1 24.00 -71.50 TS 60 3 299
1853 NA NA 15:00:00 TS 24.06 -71.69 350 343 _____________P -1 24.06 -71.69 TS 60 4 285
1853 NA NA 18:00:00 TS 24.10 -71.90 343 340 _____________O -1 24.10 -71.90 TS 60 3 287
1853 NA NA 21:00:00 TS 24.16 -72.06 347 345 _____________P -1 24.16 -72.06 TS 60 3 290
1853 NA NA 1853-11-20 00:00:00 TS 24.20 -72.20 345 342 _____________O -1 24.20 -72.20 TS 60 3 279
1853 NA NA 03:00:00 TS 24.20 -72.35 340 339 _____________P -1 24.20 -72.35 TS 60 3 270
1853 NA NA 06:00:00 TS 24.20 -72.50 339 337 _____________O -1 24.20 -72.50 TS 60 3 279
1853 NA NA 09:00:00 TS 24.24 -72.64 337 336 _____________P -1 24.24 -72.64 TS 60 3 290
1853 NA NA 12:00:00 TS 24.30 -72.80 347 346 _____________O -1 24.30 -72.80 TS 60 3 289
1853 NA NA 15:00:00 TS 24.35 -72.99 357 346 _____________P -1 24.35 -72.99 TS 65 4 285
1853 NA NA 18:00:00 TS 24.40 -73.20 357 357 _____________O -1 24.40 -73.20 HU 70 4 285
1853 NA NA 21:00:00 TS 24.45 -73.40 358 358 _____________P -1 24.45 -73.40 HU 72 4 285
1853 NA NA 1853-11-21 00:00:00 TS 24.50 -73.60 371 371 _____________O -1 24.50 -73.60 HU 75 4 286
1853 NA NA 03:00:00 TS 24.55 -73.79 373 373 _____________P -1 24.55 -73.79 HU 77 4 285
1853 NA NA 06:00:00 TS 24.60 -74.00 374 344 _____________O -1 24.60 -74.00 HU 80 5 283
1853 NA NA 09:00:00 TS 24.66 -74.29 344 324 _____________P -1 24.66 -74.29 HU 82 5 282
1853 NA NA 12:00:00 TS 24.70 -74.50 324 324 _____________O -1 24.70 -74.50 HU 85 2 292
1853 NA NA 15:00:00 TS 24.71 -74.45 324 324 _____________P -1 24.71 -74.45 HU 87 2 90
1853 NA NA 18:00:00 TS 24.70 -74.30 344 344 _____________O -1 24.70 -74.30 HU 90 2 105
1853 NA NA 21:00:00 TS 24.65 -74.19 354 353 _____________P -1 24.65 -74.19 HU 92 2 119
1853 NA NA 1853-11-22 00:00:00 TS 24.60 -74.10 364 364 _____________O -1 24.60 -74.10 HU 95 1 111
1853 NA NA 03:00:00 TS 24.60 -74.05 364 364 _____________P -1 24.60 -74.05 HU 95 1 90
1853 NA NA 06:00:00 TS 24.60 -74.00 374 374 _____________O -1 24.60 -74.00 HU 95 2 104
1853 NA NA 09:00:00 TS 24.56 -73.86 384 373 _____________P -1 24.56 -73.86 HU 95 2 119
1853 NA NA 12:00:00 TS 24.50 -73.80 373 373 _____________O -1 24.50 -73.80 HU 95 1 215
1853 NA NA 15:00:00 TS 24.45 -73.95 375 354 _____________P -1 24.45 -73.95 HU 95 4 255
1853 NA NA 18:00:00 TS 24.40 -74.20 354 334 _____________O -1 24.40 -74.20 HU 95 5 258
1853 NA NA 21:00:00 TS 24.35 -74.45 334 304 _____________P -1 24.35 -74.45 HU 95 5 258
1853 NA NA 1853-11-23 00:00:00 TS 24.30 -74.70 304 284 _____________O -1 24.30 -74.70 HU 95 4 257
1853 NA NA 03:00:00 TS 24.26 -74.91 284 265 _____________P -1 24.26 -74.91 HU 95 4 255
1853 NA NA 06:00:00 TS 24.20 -75.10 265 237 _____________O -1 24.20 -75.10 HU 95 5 250
1853 NA NA 09:00:00 TS 24.09 -75.41 237 227 _____________P -1 24.09 -75.41 HU 95 4 241
1853 NA NA 12:00:00 TS 24.00 -75.50 229 229 _____________O -1 24.00 -75.50 HU 95 965 3 111
1853 NA NA 15:00:00 TS 23.99 -75.10 269 269 _____________P -1 23.99 -75.10 HU 95 9 90
1853 NA NA 18:00:00 TS 24.00 -74.50 329 323 _____________O -1 24.00 -74.50 HU 95 10 89
1853 NA NA 21:00:00 TS 24.00 -74.00 323 314 _____________P -1 24.00 -74.00 HU 95 9 90
1853 NA NA 1853-11-24 00:00:00 TS 24.00 -73.50 314 313 _____________O -1 24.00 -73.50 HU 95 9 90
1853 NA NA 03:00:00 TS 24.00 -73.00 313 313 _____________P -1 24.00 -73.00 HU 95 9 90
1853 NA NA 06:00:00 TS 24.00 -72.50 317 317 _____________O -1 24.00 -72.50 HU 95 9 92
1853 NA NA 09:00:00 TS 23.96 -72.00 329 329 _____________P -1 23.96 -72.00 HU 95 9 90
1853 NA NA 12:00:00 TS 24.00 -71.50 348 348 _____________O -1 24.00 -71.50 HU 95 9 74
1853 NA NA 15:00:00 TS 24.22 -71.00 393 393 _____________P -1 24.22 -71.00 HU 92 10 61
1853 NA NA 18:00:00 TS 24.50 -70.50 449 449 _____________O -1 24.50 -70.50 HU 90 10 62
1853 NA NA 21:00:00 TS 24.71 -70.00 497 497 _____________P -1 24.71 -70.00 HU 90 10 66
1853 NA NA 1853-11-25 00:00:00 TS 24.90 -69.50 546 546 _____________O -1 24.90 -69.50 HU 90 10 67
1853 NA NA 03:00:00 TS 25.09 -69.00 597 597 _____________P -1 25.09 -69.00 HU 87 10 66
1853 NA NA 06:00:00 TS 25.30 -68.50 648 648 _____________O -1 25.30 -68.50 HU 85 10 62
1853 NA NA 09:00:00 TS 25.57 -68.00 700 700 _____________P -1 25.57 -68.00 HU 85 10 61
1853 NA NA 12:00:00 TS 25.80 -67.50 738 738 _____________O -1 25.80 -67.50 HU 85 10 71
1853 NA NA 15:00:00 TS 25.88 -66.99 768 768 _____________P -1 25.88 -66.99 HU 82 9 84
1853 NA NA 18:00:00 TS 25.90 -66.50 790 790 _____________O -1 25.90 -66.50 HU 80 9 85
1853 NA NA 21:00:00 TS 25.95 -66.04 811 811 _____________P -1 25.95 -66.04 HU 80 8 83
1853 NA NA 1853-11-26 00:00:00 TS 26.00 -65.60 839 839 _____________O -1 26.00 -65.60 HU 80 8 83
1853 NA NA 03:00:00 TS 26.05 -65.15 851 851 _____________P -1 26.05 -65.15 HU 77 8 83
1853 NA NA 06:00:00 TS 26.10 -64.70 865 865 _____________O -1 26.10 -64.70 HU 75 8 83
1853 NA NA 09:00:00 TS 26.15 -64.24 872 872 _____________P -1 26.15 -64.24 HU 75 8 83
1853 NA NA 12:00:00 TS 26.20 -63.80 891 891 _____________O -1 26.20 -63.80 HU 75 8 83
1853 NA NA 15:00:00 TS 26.24 -63.39 900 900 _____________P -1 26.24 -63.39 HU 72 7 82
1853 NA NA 18:00:00 TS 26.30 -63.00 922 922 _____________O -1 26.30 -63.00 HU 70 7 77
1853 NA NA 21:00:00 TS 26.40 -62.60 945 945 _____________P -1 26.40 -62.60 HU 70 7 74
1853 NA NA 1853-11-27 00:00:00 TS 26.50 -62.20 970 970 _____________O -1 26.50 -62.20 HU 70 7 78
1853 NA NA 03:00:00 TS 26.55 -61.80 985 985 _____________P -1 26.55 -61.80 HU 67 7 82
1853 NA NA 06:00:00 TS 26.60 -61.40 1012 1012 _____________O -1 26.60 -61.40 HU 65 7 79
1853 NA NA 09:00:00 TS 26.69 -61.01 1040 1040 _____________P -1 26.69 -61.01 HU 65 7 74
1853 NA NA 12:00:00 TS 26.80 -60.60 1069 1069 _____________O -1 26.80 -60.60 HU 65 8 75
1853 NA NA 15:00:00 TS 26.91 -60.12 1104 1104 _____________P -1 26.91 -60.12 HU 65 9 77
1853 NA NA 18:00:00 TS 27.00 -59.60 1140 1140 _____________O -1 27.00 -59.60 HU 65 9 81
1853 NA NA 21:00:00 TS 27.05 -59.10 1169 1169 _____________P -1 27.05 -59.10 HU 60 9 84
1853 NA NA 1853-11-28 00:00:00 TS 27.10 -58.60 1207 1207 _____________O -1 27.10 -58.60 TS 55 9 81
1853 NA NA 03:00:00 TS 27.19 -58.10 1247 1247 _____________P -1 27.19 -58.10 TS 50 9 77
1853 NA NA 06:00:00 TS 27.30 -57.60 1287 1287 _____________O -1 27.30 -57.60 TS 45 9 77
1853 NA NA 09:00:00 TS 27.40 -57.10 1329 1329 _____________P -1 27.40 -57.10 TS 40 9 77
1853 NA NA 12:00:00 ET 27.50 -56.60 1371 1371 _____________O -1 27.50 -56.60 EX 35 9 77
1853 NA NA 15:00:00 ET 27.60 -56.10 1413 1413 _____________P -1 27.60 -56.10 EX 32 9 77
1853 NA NA 18:00:00 ET 27.70 -55.60 1456 _____________O -1 27.70 -55.60 EX 30 9 77